sensor_id;sensor_type;location;lat;lon;timestamp;P1;durP1;ratioP1;P2;durP2;ratioP2
65187;SDS011;51775;51.148;6.950;2022-10-18T00:02:02;0.65;;;0.55;;
65187;SDS011;51775;51.148;6.950;2022-10-18T00:04:27;1.02;;;0.60;;
65187;SDS011;51775;51.148;6.950;2022-10-18T00:06:53;0.80;;;0.70;;
65187;SDS011;51775;51.148;6.950;2022-10-18T00:09:18;0.88;;;0.68;;
65187;SDS011;51775;51.148;6.950;2022-10-18T00:11:43;1.05;;;0.70;;
65187;SDS011;51775;51.148;6.950;2022-10-18T00:14:08;1.00;;;0.65;;
65187;SDS011;51775;51.148;6.950;2022-10-18T00:16:34;0.90;;;0.70;;
65187;SDS011;51775;51.148;6.950;2022-10-18T00:18:59;1.08;;;0.68;;
65187;SDS011;51775;51.148;6.950;2022-10-18T00:21:25;0.95;;;0.75;;
65187;SDS011;51775;51.148;6.950;2022-10-18T00:23:51;0.90;;;0.70;;
65187;SDS011;51775;51.148;6.950;2022-10-18T00:26:21;0.60;;;0.60;;
65187;SDS011;51775;51.148;6.950;2022-10-18T00:28:52;0.90;;;0.70;;
65187;SDS011;51775;51.148;6.950;2022-10-18T00:31:21;0.63;;;0.60;;
65187;SDS011;51775;51.148;6.950;2022-10-18T00:33:58;1.23;;;0.60;;
65187;SDS011;51775;51.148;6.950;2022-10-18T00:38:52;1.00;;;0.68;;
65187;SDS011;51775;51.148;6.950;2022-10-18T00:41:19;0.50;;;0.50;;
65187;SDS011;51775;51.148;6.950;2022-10-18T00:44:03;0.63;;;0.63;;
65187;SDS011;51775;51.148;6.950;2022-10-18T00:46:31;0.95;;;0.70;;
65187;SDS011;51775;51.148;6.950;2022-10-18T00:49:03;0.85;;;0.63;;
65187;SDS011;51775;51.148;6.950;2022-10-18T00:51:41;0.65;;;0.60;;
65187;SDS011;51775;51.148;6.950;2022-10-18T00:54:11;0.90;;;0.70;;
65187;SDS011;51775;51.148;6.950;2022-10-18T00:56:37;1.05;;;0.60;;
65187;SDS011;51775;51.148;6.950;2022-10-18T00:59:02;0.68;;;0.60;;
65187;SDS011;51775;51.148;6.950;2022-10-18T01:01:27;0.88;;;0.80;;
65187;SDS011;51775;51.148;6.950;2022-10-18T01:03:53;1.17;;;0.70;;
65187;SDS011;51775;51.148;6.950;2022-10-18T01:06:20;0.75;;;0.70;;
65187;SDS011;51775;51.148;6.950;2022-10-18T01:11:51;0.60;;;0.60;;
65187;SDS011;51775;51.148;6.950;2022-10-18T01:14:44;0.60;;;0.60;;
65187;SDS011;51775;51.148;6.950;2022-10-18T01:17:18;0.80;;;0.60;;
65187;SDS011;51775;51.148;6.950;2022-10-18T01:22:47;0.82;;;0.73;;
65187;SDS011;51775;51.148;6.950;2022-10-18T01:28:00;0.93;;;0.60;;
65187;SDS011;51775;51.148;6.950;2022-10-18T01:30:38;0.70;;;0.60;;
65187;SDS011;51775;51.148;6.950;2022-10-18T01:33:30;0.70;;;0.60;;
65187;SDS011;51775;51.148;6.950;2022-10-18T01:38:41;1.83;;;0.60;;
65187;SDS011;51775;51.148;6.950;2022-10-18T01:41:08;0.60;;;0.60;;
65187;SDS011;51775;51.148;6.950;2022-10-18T01:43:37;0.52;;;0.50;;
65187;SDS011;51775;51.148;6.950;2022-10-18T01:46:04;0.90;;;0.70;;
65187;SDS011;51775;51.148;6.950;2022-10-18T01:48:31;0.60;;;0.60;;
65187;SDS011;51775;51.148;6.950;2022-10-18T01:50:58;0.60;;;0.40;;
65187;SDS011;51775;51.148;6.950;2022-10-18T01:53:24;0.75;;;0.60;;
65187;SDS011;51775;51.148;6.950;2022-10-18T01:56:35;0.70;;;0.60;;
65187;SDS011;51775;51.148;6.950;2022-10-18T02:12:37;0.80;;;0.60;;
65187;SDS011;51775;51.148;6.950;2022-10-18T02:15:05;0.85;;;0.60;;
65187;SDS011;51775;51.148;6.950;2022-10-18T02:17:31;0.60;;;0.50;;
65187;SDS011;51775;51.148;6.950;2022-10-18T02:22:46;0.55;;;0.45;;
65187;SDS011;51775;51.148;6.950;2022-10-18T02:25:16;1.08;;;0.85;;
65187;SDS011;51775;51.148;6.950;2022-10-18T02:27:45;0.63;;;0.50;;
65187;SDS011;51775;51.148;6.950;2022-10-18T02:30:10;0.45;;;0.45;;
65187;SDS011;51775;51.148;6.950;2022-10-18T02:32:40;0.68;;;0.50;;
65187;SDS011;51775;51.148;6.950;2022-10-18T02:35:28;0.60;;;0.50;;
65187;SDS011;51775;51.148;6.950;2022-10-18T02:37:58;0.47;;;0.47;;
65187;SDS011;51775;51.148;6.950;2022-10-18T02:40:24;1.27;;;0.60;;
65187;SDS011;51775;51.148;6.950;2022-10-18T02:42:53;0.40;;;0.40;;
65187;SDS011;51775;51.148;6.950;2022-10-18T02:45:20;0.60;;;0.40;;
65187;SDS011;51775;51.148;6.950;2022-10-18T02:47:46;0.77;;;0.60;;
65187;SDS011;51775;51.148;6.950;2022-10-18T02:50:12;0.63;;;0.50;;
65187;SDS011;51775;51.148;6.950;2022-10-18T02:52:37;0.82;;;0.60;;
65187;SDS011;51775;51.148;6.950;2022-10-18T02:55:03;0.57;;;0.57;;
65187;SDS011;51775;51.148;6.950;2022-10-18T02:57:29;0.50;;;0.50;;
65187;SDS011;51775;51.148;6.950;2022-10-18T02:59:54;0.60;;;0.50;;
65187;SDS011;51775;51.148;6.950;2022-10-18T03:02:19;0.77;;;0.60;;
65187;SDS011;51775;51.148;6.950;2022-10-18T03:04:45;0.40;;;0.40;;
65187;SDS011;51775;51.148;6.950;2022-10-18T03:07:10;0.40;;;0.40;;
65187;SDS011;51775;51.148;6.950;2022-10-18T03:09:35;0.63;;;0.50;;
65187;SDS011;51775;51.148;6.950;2022-10-18T03:12:01;0.70;;;0.50;;
65187;SDS011;51775;51.148;6.950;2022-10-18T03:14:26;0.70;;;0.50;;
65187;SDS011;51775;51.148;6.950;2022-10-18T03:16:51;0.52;;;0.50;;
65187;SDS011;51775;51.148;6.950;2022-10-18T03:19:16;1.77;;;0.60;;
65187;SDS011;51775;51.148;6.950;2022-10-18T03:21:42;0.50;;;0.43;;
65187;SDS011;51775;51.148;6.950;2022-10-18T03:24:07;0.87;;;0.60;;
65187;SDS011;51775;51.148;6.950;2022-10-18T03:26:32;1.65;;;0.60;;
65187;SDS011;51775;51.148;6.950;2022-10-18T03:28:58;0.80;;;0.60;;
65187;SDS011;51775;51.148;6.950;2022-10-18T03:31:23;0.98;;;0.70;;
65187;SDS011;51775;51.148;6.950;2022-10-18T03:33:48;0.85;;;0.70;;
65187;SDS011;51775;51.148;6.950;2022-10-18T03:36:13;0.77;;;0.57;;
65187;SDS011;51775;51.148;6.950;2022-10-18T03:38:39;0.77;;;0.57;;
65187;SDS011;51775;51.148;6.950;2022-10-18T03:41:04;1.08;;;0.70;;
65187;SDS011;51775;51.148;6.950;2022-10-18T03:43:29;1.08;;;0.60;;
65187;SDS011;51775;51.148;6.950;2022-10-18T03:45:55;1.02;;;0.60;;
65187;SDS011;51775;51.148;6.950;2022-10-18T03:48:20;0.90;;;0.70;;
65187;SDS011;51775;51.148;6.950;2022-10-18T03:50:45;0.93;;;0.60;;
65187;SDS011;51775;51.148;6.950;2022-10-18T03:53:11;0.63;;;0.57;;
65187;SDS011;51775;51.148;6.950;2022-10-18T03:55:36;1.02;;;0.70;;
65187;SDS011;51775;51.148;6.950;2022-10-18T03:58:02;0.63;;;0.60;;
65187;SDS011;51775;51.148;6.950;2022-10-18T04:00:28;0.70;;;0.50;;
65187;SDS011;51775;51.148;6.950;2022-10-18T04:02:53;0.70;;;0.60;;
65187;SDS011;51775;51.148;6.950;2022-10-18T04:05:18;1.08;;;0.70;;
65187;SDS011;51775;51.148;6.950;2022-10-18T04:07:43;0.95;;;0.50;;
65187;SDS011;51775;51.148;6.950;2022-10-18T04:10:09;1.13;;;0.80;;
65187;SDS011;51775;51.148;6.950;2022-10-18T04:12:34;0.90;;;0.55;;
65187;SDS011;51775;51.148;6.950;2022-10-18T04:14:59;1.98;;;0.60;;
65187;SDS011;51775;51.148;6.950;2022-10-18T04:17:25;0.82;;;0.60;;
65187;SDS011;51775;51.148;6.950;2022-10-18T04:19:50;0.90;;;0.60;;
65187;SDS011;51775;51.148;6.950;2022-10-18T04:22:15;1.00;;;0.70;;
65187;SDS011;51775;51.148;6.950;2022-10-18T04:24:40;0.73;;;0.60;;
65187;SDS011;51775;51.148;6.950;2022-10-18T04:27:06;0.70;;;0.52;;
65187;SDS011;51775;51.148;6.950;2022-10-18T04:29:32;0.60;;;0.50;;
65187;SDS011;51775;51.148;6.950;2022-10-18T04:31:57;1.10;;;0.73;;
65187;SDS011;51775;51.148;6.950;2022-10-18T04:34:23;0.75;;;0.70;;
65187;SDS011;51775;51.148;6.950;2022-10-18T04:36:48;0.80;;;0.60;;
65187;SDS011;51775;51.148;6.950;2022-10-18T04:39:13;0.77;;;0.50;;
65187;SDS011;51775;51.148;6.950;2022-10-18T04:41:39;1.08;;;0.70;;
65187;SDS011;51775;51.148;6.950;2022-10-18T04:44:04;1.02;;;0.65;;
65187;SDS011;51775;51.148;6.950;2022-10-18T04:46:29;0.98;;;0.68;;
65187;SDS011;51775;51.148;6.950;2022-10-18T04:48:54;0.55;;;0.55;;
65187;SDS011;51775;51.148;6.950;2022-10-18T04:51:20;0.95;;;0.60;;
65187;SDS011;51775;51.148;6.950;2022-10-18T04:53:45;0.50;;;0.50;;
65187;SDS011;51775;51.148;6.950;2022-10-18T04:56:10;0.77;;;0.50;;
65187;SDS011;51775;51.148;6.950;2022-10-18T04:58:36;0.90;;;0.70;;
65187;SDS011;51775;51.148;6.950;2022-10-18T05:01:05;0.60;;;0.50;;
65187;SDS011;51775;51.148;6.950;2022-10-18T05:03:31;0.60;;;0.60;;
65187;SDS011;51775;51.148;6.950;2022-10-18T05:05:56;1.13;;;0.60;;
65187;SDS011;51775;51.148;6.950;2022-10-18T05:08:21;0.60;;;0.55;;
65187;SDS011;51775;51.148;6.950;2022-10-18T05:10:46;0.65;;;0.60;;
65187;SDS011;51775;51.148;6.950;2022-10-18T05:13:12;0.95;;;0.70;;
65187;SDS011;51775;51.148;6.950;2022-10-18T05:15:37;3.38;;;0.70;;
65187;SDS011;51775;51.148;6.950;2022-10-18T05:18:02;2.25;;;0.60;;
65187;SDS011;51775;51.148;6.950;2022-10-18T05:20:28;0.60;;;0.55;;
65187;SDS011;51775;51.148;6.950;2022-10-18T05:22:53;2.35;;;0.60;;
65187;SDS011;51775;51.148;6.950;2022-10-18T05:25:18;1.67;;;0.70;;
65187;SDS011;51775;51.148;6.950;2022-10-18T05:27:43;1.83;;;0.60;;
65187;SDS011;51775;51.148;6.950;2022-10-18T05:30:09;3.83;;;1.00;;
65187;SDS011;51775;51.148;6.950;2022-10-18T05:32:34;1.20;;;0.70;;
65187;SDS011;51775;51.148;6.950;2022-10-18T05:34:59;0.82;;;0.63;;
65187;SDS011;51775;51.148;6.950;2022-10-18T05:37:25;2.72;;;0.75;;
65187;SDS011;51775;51.148;6.950;2022-10-18T05:39:50;2.80;;;0.60;;
65187;SDS011;51775;51.148;6.950;2022-10-18T05:42:15;1.30;;;0.60;;
65187;SDS011;51775;51.148;6.950;2022-10-18T05:44:41;1.48;;;0.82;;
65187;SDS011;51775;51.148;6.950;2022-10-18T05:47:06;1.05;;;0.70;;
65187;SDS011;51775;51.148;6.950;2022-10-18T05:49:31;1.98;;;0.90;;
65187;SDS011;51775;51.148;6.950;2022-10-18T05:51:57;1.25;;;0.60;;
65187;SDS011;51775;51.148;6.950;2022-10-18T05:54:22;1.20;;;0.90;;
65187;SDS011;51775;51.148;6.950;2022-10-18T05:56:47;1.25;;;0.70;;
65187;SDS011;51775;51.148;6.950;2022-10-18T05:59:13;1.92;;;0.90;;
65187;SDS011;51775;51.148;6.950;2022-10-18T06:01:38;1.35;;;0.70;;
65187;SDS011;51775;51.148;6.950;2022-10-18T06:04:05;1.10;;;0.80;;
65187;SDS011;51775;51.148;6.950;2022-10-18T06:06:31;2.78;;;0.70;;
65187;SDS011;51775;51.148;6.950;2022-10-18T06:08:57;1.38;;;0.68;;
65187;SDS011;51775;51.148;6.950;2022-10-18T06:11:23;1.50;;;0.80;;
65187;SDS011;51775;51.148;6.950;2022-10-18T06:13:50;2.20;;;0.70;;
65187;SDS011;51775;51.148;6.950;2022-10-18T06:16:17;3.30;;;0.70;;
65187;SDS011;51775;51.148;6.950;2022-10-18T06:18:47;3.10;;;0.73;;
65187;SDS011;51775;51.148;6.950;2022-10-18T06:21:14;2.55;;;0.80;;
65187;SDS011;51775;51.148;6.950;2022-10-18T06:23:40;3.50;;;0.80;;
65187;SDS011;51775;51.148;6.950;2022-10-18T06:26:05;1.73;;;0.70;;
65187;SDS011;51775;51.148;6.950;2022-10-18T06:28:35;2.85;;;0.77;;
65187;SDS011;51775;51.148;6.950;2022-10-18T06:31:02;1.67;;;0.70;;
65187;SDS011;51775;51.148;6.950;2022-10-18T06:33:29;1.25;;;0.70;;
65187;SDS011;51775;51.148;6.950;2022-10-18T06:35:56;2.75;;;0.77;;
65187;SDS011;51775;51.148;6.950;2022-10-18T06:38:22;1.27;;;0.80;;
65187;SDS011;51775;51.148;6.950;2022-10-18T06:40:47;1.30;;;0.70;;
65187;SDS011;51775;51.148;6.950;2022-10-18T06:43:13;1.30;;;0.80;;
65187;SDS011;51775;51.148;6.950;2022-10-18T06:45:38;3.00;;;0.80;;
65187;SDS011;51775;51.148;6.950;2022-10-18T06:48:04;1.60;;;0.85;;
65187;SDS011;51775;51.148;6.950;2022-10-18T06:50:29;1.42;;;0.80;;
65187;SDS011;51775;51.148;6.950;2022-10-18T06:52:55;1.00;;;0.75;;
65187;SDS011;51775;51.148;6.950;2022-10-18T06:55:20;1.38;;;0.73;;
65187;SDS011;51775;51.148;6.950;2022-10-18T06:57:45;2.47;;;0.73;;
65187;SDS011;51775;51.148;6.950;2022-10-18T07:00:11;1.20;;;0.70;;
65187;SDS011;51775;51.148;6.950;2022-10-18T07:02:36;1.48;;;0.73;;
65187;SDS011;51775;51.148;6.950;2022-10-18T07:05:02;1.48;;;0.75;;
65187;SDS011;51775;51.148;6.950;2022-10-18T07:07:29;2.40;;;1.10;;
65187;SDS011;51775;51.148;6.950;2022-10-18T07:09:55;1.88;;;0.85;;
65187;SDS011;51775;51.148;6.950;2022-10-18T07:12:20;2.47;;;0.90;;
65187;SDS011;51775;51.148;6.950;2022-10-18T07:14:45;1.20;;;0.70;;
65187;SDS011;51775;51.148;6.950;2022-10-18T07:17:10;2.08;;;1.00;;
65187;SDS011;51775;51.148;6.950;2022-10-18T07:19:36;1.58;;;0.85;;
65187;SDS011;51775;51.148;6.950;2022-10-18T07:22:01;1.95;;;0.77;;
65187;SDS011;51775;51.148;6.950;2022-10-18T07:24:26;1.45;;;0.80;;
65187;SDS011;51775;51.148;6.950;2022-10-18T07:26:52;1.58;;;0.80;;
65187;SDS011;51775;51.148;6.950;2022-10-18T07:29:17;1.58;;;0.90;;
65187;SDS011;51775;51.148;6.950;2022-10-18T07:31:43;2.35;;;0.95;;
65187;SDS011;51775;51.148;6.950;2022-10-18T07:34:09;2.15;;;0.90;;
65187;SDS011;51775;51.148;6.950;2022-10-18T07:36:36;2.63;;;0.90;;
65187;SDS011;51775;51.148;6.950;2022-10-18T07:39:03;1.63;;;0.80;;
65187;SDS011;51775;51.148;6.950;2022-10-18T07:41:28;1.65;;;0.90;;
65187;SDS011;51775;51.148;6.950;2022-10-18T07:43:54;1.65;;;1.00;;
65187;SDS011;51775;51.148;6.950;2022-10-18T07:46:19;1.30;;;0.80;;
65187;SDS011;51775;51.148;6.950;2022-10-18T07:48:46;3.05;;;0.90;;
65187;SDS011;51775;51.148;6.950;2022-10-18T07:51:12;3.00;;;0.80;;
65187;SDS011;51775;51.148;6.950;2022-10-18T07:53:37;1.60;;;1.08;;
65187;SDS011;51775;51.148;6.950;2022-10-18T07:56:06;1.13;;;0.80;;
65187;SDS011;51775;51.148;6.950;2022-10-18T07:58:33;1.88;;;0.80;;
65187;SDS011;51775;51.148;6.950;2022-10-18T08:01:05;2.17;;;1.20;;
65187;SDS011;51775;51.148;6.950;2022-10-18T08:03:31;1.88;;;1.00;;
65187;SDS011;51775;51.148;6.950;2022-10-18T08:05:57;1.45;;;0.90;;
65187;SDS011;51775;51.148;6.950;2022-10-18T08:08:22;0.93;;;0.80;;
65187;SDS011;51775;51.148;6.950;2022-10-18T08:10:48;1.13;;;0.90;;
65187;SDS011;51775;51.148;6.950;2022-10-18T08:13:14;2.47;;;0.80;;
65187;SDS011;51775;51.148;6.950;2022-10-18T08:15:40;2.25;;;1.08;;
65187;SDS011;51775;51.148;6.950;2022-10-18T08:18:05;2.53;;;1.00;;
65187;SDS011;51775;51.148;6.950;2022-10-18T08:23:34;1.92;;;1.10;;
65187;SDS011;51775;51.148;6.950;2022-10-18T08:26:03;1.30;;;0.90;;
65187;SDS011;51775;51.148;6.950;2022-10-18T08:28:31;1.75;;;1.20;;
65187;SDS011;51775;51.148;6.950;2022-10-18T08:31:00;2.25;;;1.23;;
65187;SDS011;51775;51.148;6.950;2022-10-18T08:33:26;4.43;;;1.48;;
65187;SDS011;51775;51.148;6.950;2022-10-18T08:35:56;6.32;;;1.65;;
65187;SDS011;51775;51.148;6.950;2022-10-18T08:38:23;6.30;;;1.90;;
65187;SDS011;51775;51.148;6.950;2022-10-18T08:40:48;5.30;;;1.77;;
65187;SDS011;51775;51.148;6.950;2022-10-18T08:45:52;3.15;;;1.63;;
65187;SDS011;51775;51.148;6.950;2022-10-18T08:48:30;3.28;;;1.50;;
65187;SDS011;51775;51.148;6.950;2022-10-18T08:50:59;3.65;;;1.50;;
65187;SDS011;51775;51.148;6.950;2022-10-18T08:53:36;3.10;;;1.73;;
65187;SDS011;51775;51.148;6.950;2022-10-18T08:56:11;3.83;;;1.40;;
65187;SDS011;51775;51.148;6.950;2022-10-18T08:58:37;3.30;;;1.30;;
65187;SDS011;51775;51.148;6.950;2022-10-18T09:07:22;2.90;;;1.70;;
65187;SDS011;51775;51.148;6.950;2022-10-18T09:15:05;3.50;;;1.33;;
65187;SDS011;51775;51.148;6.950;2022-10-18T09:20:33;3.08;;;1.50;;
65187;SDS011;51775;51.148;6.950;2022-10-18T09:23:14;2.70;;;1.35;;
65187;SDS011;51775;51.148;6.950;2022-10-18T09:25:47;3.80;;;1.50;;
65187;SDS011;51775;51.148;6.950;2022-10-18T09:31:27;3.20;;;1.70;;
65187;SDS011;51775;51.148;6.950;2022-10-18T09:34:08;2.75;;;1.40;;
65187;SDS011;51775;51.148;6.950;2022-10-18T09:36:37;2.10;;;1.25;;
65187;SDS011;51775;51.148;6.950;2022-10-18T09:39:08;2.70;;;1.58;;
65187;SDS011;51775;51.148;6.950;2022-10-18T09:44:09;4.10;;;1.80;;
65187;SDS011;51775;51.148;6.950;2022-10-18T09:46:40;3.85;;;2.00;;
65187;SDS011;51775;51.148;6.950;2022-10-18T09:49:12;3.40;;;1.70;;
65187;SDS011;51775;51.148;6.950;2022-10-18T09:51:43;3.90;;;1.60;;
65187;SDS011;51775;51.148;6.950;2022-10-18T09:59:29;4.07;;;1.85;;
65187;SDS011;51775;51.148;6.950;2022-10-18T10:01:59;4.80;;;1.80;;
65187;SDS011;51775;51.148;6.950;2022-10-18T10:04:24;8.20;;;1.98;;
65187;SDS011;51775;51.148;6.950;2022-10-18T10:06:50;3.25;;;1.67;;
65187;SDS011;51775;51.148;6.950;2022-10-18T10:09:19;3.63;;;1.60;;
65187;SDS011;51775;51.148;6.950;2022-10-18T10:11:50;5.25;;;1.83;;
65187;SDS011;51775;51.148;6.950;2022-10-18T10:16:50;3.42;;;2.13;;
65187;SDS011;51775;51.148;6.950;2022-10-18T10:19:17;3.88;;;2.28;;
65187;SDS011;51775;51.148;6.950;2022-10-18T10:22:07;3.20;;;2.03;;
65187;SDS011;51775;51.148;6.950;2022-10-18T10:27:18;4.53;;;2.25;;
65187;SDS011;51775;51.148;6.950;2022-10-18T10:30:02;4.15;;;2.20;;
65187;SDS011;51775;51.148;6.950;2022-10-18T10:32:29;4.45;;;2.45;;
65187;SDS011;51775;51.148;6.950;2022-10-18T10:37:55;4.18;;;2.45;;
65187;SDS011;51775;51.148;6.950;2022-10-18T10:40:22;5.38;;;2.70;;
65187;SDS011;51775;51.148;6.950;2022-10-18T10:42:59;4.10;;;2.58;;
65187;SDS011;51775;51.148;6.950;2022-10-18T10:45:26;4.82;;;2.80;;
65187;SDS011;51775;51.148;6.950;2022-10-18T10:47:53;3.88;;;2.53;;
65187;SDS011;51775;51.148;6.950;2022-10-18T10:50:27;4.55;;;2.60;;
65187;SDS011;51775;51.148;6.950;2022-10-18T10:52:53;4.60;;;2.95;;
65187;SDS011;51775;51.148;6.950;2022-10-18T10:55:20;4.78;;;2.65;;
65187;SDS011;51775;51.148;6.950;2022-10-18T10:57:49;4.32;;;3.00;;
65187;SDS011;51775;51.148;6.950;2022-10-18T11:00:34;3.88;;;2.72;;
65187;SDS011;51775;51.148;6.950;2022-10-18T11:05:57;4.60;;;2.58;;
65187;SDS011;51775;51.148;6.950;2022-10-18T11:08:30;4.70;;;3.30;;
65187;SDS011;51775;51.148;6.950;2022-10-18T11:11:14;5.40;;;3.20;;
65187;SDS011;51775;51.148;6.950;2022-10-18T11:16:25;5.35;;;3.20;;
65187;SDS011;51775;51.148;6.950;2022-10-18T11:18:56;5.65;;;3.38;;
65187;SDS011;51775;51.148;6.950;2022-10-18T11:21:26;5.38;;;3.60;;
65187;SDS011;51775;51.148;6.950;2022-10-18T11:23:53;5.28;;;3.40;;
65187;SDS011;51775;51.148;6.950;2022-10-18T11:31:58;4.70;;;3.20;;
65187;SDS011;51775;51.148;6.950;2022-10-18T11:34:30;5.18;;;3.65;;
65187;SDS011;51775;51.148;6.950;2022-10-18T11:42:37;5.32;;;3.80;;
65187;SDS011;51775;51.148;6.950;2022-10-18T11:45:24;5.15;;;3.88;;
65187;SDS011;51775;51.148;6.950;2022-10-18T11:48:00;4.93;;;3.78;;
65187;SDS011;51775;51.148;6.950;2022-10-18T11:50:47;6.05;;;3.88;;
65187;SDS011;51775;51.148;6.950;2022-10-18T11:53:34;5.50;;;3.88;;
65187;SDS011;51775;51.148;6.950;2022-10-18T12:04:46;6.75;;;4.30;;
65187;SDS011;51775;51.148;6.950;2022-10-18T12:07:19;6.65;;;4.45;;
65187;SDS011;51775;51.148;6.950;2022-10-18T12:09:47;7.25;;;4.70;;
65187;SDS011;51775;51.148;6.950;2022-10-18T12:12:23;7.38;;;4.40;;
65187;SDS011;51775;51.148;6.950;2022-10-18T12:14:59;6.72;;;4.40;;
65187;SDS011;51775;51.148;6.950;2022-10-18T12:17:31;7.50;;;4.57;;
65187;SDS011;51775;51.148;6.950;2022-10-18T12:20:10;6.82;;;4.70;;
65187;SDS011;51775;51.148;6.950;2022-10-18T12:22:48;6.07;;;3.88;;
65187;SDS011;51775;51.148;6.950;2022-10-18T12:25:16;6.35;;;4.22;;
65187;SDS011;51775;51.148;6.950;2022-10-18T12:27:53;7.05;;;4.75;;
65187;SDS011;51775;51.148;6.950;2022-10-18T12:33:14;7.57;;;4.90;;
65187;SDS011;51775;51.148;6.950;2022-10-18T12:35:46;7.63;;;4.40;;
65187;SDS011;51775;51.148;6.950;2022-10-18T12:38:24;6.32;;;4.28;;
65187;SDS011;51775;51.148;6.950;2022-10-18T12:40:54;8.27;;;4.82;;
65187;SDS011;51775;51.148;6.950;2022-10-18T12:43:26;6.82;;;4.75;;
65187;SDS011;51775;51.148;6.950;2022-10-18T12:45:54;6.15;;;4.07;;
65187;SDS011;51775;51.148;6.950;2022-10-18T12:48:32;6.82;;;4.38;;
65187;SDS011;51775;51.148;6.950;2022-10-18T12:51:03;6.70;;;4.68;;
65187;SDS011;51775;51.148;6.950;2022-10-18T12:53:29;7.32;;;4.70;;
65187;SDS011;51775;51.148;6.950;2022-10-18T12:55:55;6.20;;;4.30;;
65187;SDS011;51775;51.148;6.950;2022-10-18T12:58:52;6.63;;;4.20;;
65187;SDS011;51775;51.148;6.950;2022-10-18T13:09:23;5.85;;;4.20;;
65187;SDS011;51775;51.148;6.950;2022-10-18T13:11:52;6.70;;;4.55;;
65187;SDS011;51775;51.148;6.950;2022-10-18T13:17:19;6.15;;;4.10;;
65187;SDS011;51775;51.148;6.950;2022-10-18T13:20:06;6.47;;;4.40;;
65187;SDS011;51775;51.148;6.950;2022-10-18T13:33:54;5.20;;;3.63;;
65187;SDS011;51775;51.148;6.950;2022-10-18T13:36:32;4.80;;;3.40;;
65187;SDS011;51775;51.148;6.950;2022-10-18T13:38:59;5.40;;;3.88;;
65187;SDS011;51775;51.148;6.950;2022-10-18T13:41:30;4.82;;;3.65;;
65187;SDS011;51775;51.148;6.950;2022-10-18T13:44:27;5.93;;;3.90;;
65187;SDS011;51775;51.148;6.950;2022-10-18T13:55:24;4.68;;;3.40;;
65187;SDS011;51775;51.148;6.950;2022-10-18T13:58:04;4.85;;;3.40;;
65187;SDS011;51775;51.148;6.950;2022-10-18T14:06:26;4.90;;;3.35;;
65187;SDS011;51775;51.148;6.950;2022-10-18T14:09:00;3.72;;;2.50;;
65187;SDS011;51775;51.148;6.950;2022-10-18T14:14:02;4.00;;;2.65;;
65187;SDS011;51775;51.148;6.950;2022-10-18T14:16:53;3.92;;;2.70;;
65187;SDS011;51775;51.148;6.950;2022-10-18T14:22:17;4.30;;;2.80;;
65187;SDS011;51775;51.148;6.950;2022-10-18T14:24:47;4.30;;;3.00;;
65187;SDS011;51775;51.148;6.950;2022-10-18T14:27:36;3.95;;;2.50;;
65187;SDS011;51775;51.148;6.950;2022-10-18T14:32:41;3.65;;;2.63;;
65187;SDS011;51775;51.148;6.950;2022-10-18T14:35:16;4.07;;;2.60;;
65187;SDS011;51775;51.148;6.950;2022-10-18T14:37:45;3.40;;;2.53;;
65187;SDS011;51775;51.148;6.950;2022-10-18T14:43:14;3.72;;;2.58;;
65187;SDS011;51775;51.148;6.950;2022-10-18T14:45:43;5.07;;;2.50;;
65187;SDS011;51775;51.148;6.950;2022-10-18T14:48:13;4.05;;;2.50;;
65187;SDS011;51775;51.148;6.950;2022-10-18T14:50:40;3.42;;;2.40;;
65187;SDS011;51775;51.148;6.950;2022-10-18T14:53:11;3.22;;;2.30;;
65187;SDS011;51775;51.148;6.950;2022-10-18T14:55:40;3.40;;;2.33;;
65187;SDS011;51775;51.148;6.950;2022-10-18T14:58:12;3.30;;;2.35;;
65187;SDS011;51775;51.148;6.950;2022-10-18T15:00:39;3.78;;;2.30;;
65187;SDS011;51775;51.148;6.950;2022-10-18T15:03:05;3.25;;;2.28;;
65187;SDS011;51775;51.148;6.950;2022-10-18T15:05:36;4.78;;;2.30;;
65187;SDS011;51775;51.148;6.950;2022-10-18T15:08:01;3.17;;;2.28;;
65187;SDS011;51775;51.148;6.950;2022-10-18T15:10:28;3.33;;;2.30;;
65187;SDS011;51775;51.148;6.950;2022-10-18T15:12:56;3.08;;;2.20;;
65187;SDS011;51775;51.148;6.950;2022-10-18T15:15:23;3.17;;;2.10;;
65187;SDS011;51775;51.148;6.950;2022-10-18T15:17:51;4.35;;;2.38;;
65187;SDS011;51775;51.148;6.950;2022-10-18T15:20:36;4.25;;;2.50;;
65187;SDS011;51775;51.148;6.950;2022-10-18T15:23:20;4.00;;;2.40;;
65187;SDS011;51775;51.148;6.950;2022-10-18T15:25:48;4.13;;;2.22;;
65187;SDS011;51775;51.148;6.950;2022-10-18T15:28:22;3.78;;;2.20;;
65187;SDS011;51775;51.148;6.950;2022-10-18T15:30:57;3.50;;;2.38;;
65187;SDS011;51775;51.148;6.950;2022-10-18T15:33:23;3.50;;;2.30;;
65187;SDS011;51775;51.148;6.950;2022-10-18T15:35:50;4.35;;;2.30;;
65187;SDS011;51775;51.148;6.950;2022-10-18T15:40:44;4.55;;;2.28;;
65187;SDS011;51775;51.148;6.950;2022-10-18T15:43:32;3.58;;;2.30;;
65187;SDS011;51775;51.148;6.950;2022-10-18T15:45:56;4.25;;;2.47;;
65187;SDS011;51775;51.148;6.950;2022-10-18T15:50:52;6.32;;;2.30;;
65187;SDS011;51775;51.148;6.950;2022-10-18T15:55:45;5.53;;;2.30;;
65187;SDS011;51775;51.148;6.950;2022-10-18T15:58:16;3.92;;;2.20;;
65187;SDS011;51775;51.148;6.950;2022-10-18T16:00:43;4.00;;;2.22;;
65187;SDS011;51775;51.148;6.950;2022-10-18T16:03:10;3.58;;;2.22;;
65187;SDS011;51775;51.148;6.950;2022-10-18T16:05:38;2.95;;;2.05;;
65187;SDS011;51775;51.148;6.950;2022-10-18T16:08:04;3.88;;;2.00;;
65187;SDS011;51775;51.148;6.950;2022-10-18T16:10:29;4.13;;;2.15;;
65187;SDS011;51775;51.148;6.950;2022-10-18T16:12:58;3.95;;;2.10;;
65187;SDS011;51775;51.148;6.950;2022-10-18T16:15:23;4.20;;;1.92;;
65187;SDS011;51775;51.148;6.950;2022-10-18T16:17:48;2.80;;;1.98;;
65187;SDS011;51775;51.148;6.950;2022-10-18T16:20:18;4.88;;;2.35;;
65187;SDS011;51775;51.148;6.950;2022-10-18T16:22:46;4.43;;;2.10;;
65187;SDS011;51775;51.148;6.950;2022-10-18T16:25:11;3.53;;;2.05;;
65187;SDS011;51775;51.148;6.950;2022-10-18T16:27:36;3.90;;;2.15;;
65187;SDS011;51775;51.148;6.950;2022-10-18T16:30:05;5.00;;;2.30;;
65187;SDS011;51775;51.148;6.950;2022-10-18T16:32:36;3.60;;;2.03;;
65187;SDS011;51775;51.148;6.950;2022-10-18T16:35:02;3.63;;;2.30;;
65187;SDS011;51775;51.148;6.950;2022-10-18T16:37:27;3.55;;;2.20;;
65187;SDS011;51775;51.148;6.950;2022-10-18T16:39:52;3.03;;;2.10;;
65187;SDS011;51775;51.148;6.950;2022-10-18T16:42:18;4.97;;;2.33;;
65187;SDS011;51775;51.148;6.950;2022-10-18T16:44:43;3.45;;;1.95;;
65187;SDS011;51775;51.148;6.950;2022-10-18T16:47:08;3.40;;;1.90;;
65187;SDS011;51775;51.148;6.950;2022-10-18T16:49:35;12.07;;;4.53;;
65187;SDS011;51775;51.148;6.950;2022-10-18T16:52:00;6.20;;;2.40;;
65187;SDS011;51775;51.148;6.950;2022-10-18T16:54:25;3.95;;;2.20;;
65187;SDS011;51775;51.148;6.950;2022-10-18T16:56:50;4.18;;;2.10;;
65187;SDS011;51775;51.148;6.950;2022-10-18T16:59:26;4.80;;;2.30;;
65187;SDS011;51775;51.148;6.950;2022-10-18T17:01:52;5.35;;;2.30;;
65187;SDS011;51775;51.148;6.950;2022-10-18T17:04:18;3.20;;;1.90;;
65187;SDS011;51775;51.148;6.950;2022-10-18T17:06:43;4.72;;;2.00;;
65187;SDS011;51775;51.148;6.950;2022-10-18T17:09:09;4.60;;;2.00;;
65187;SDS011;51775;51.148;6.950;2022-10-18T17:11:37;4.18;;;2.15;;
65187;SDS011;51775;51.148;6.950;2022-10-18T17:14:02;5.68;;;1.90;;
65187;SDS011;51775;51.148;6.950;2022-10-18T17:16:29;4.40;;;2.17;;
65187;SDS011;51775;51.148;6.950;2022-10-18T17:18:57;3.40;;;2.00;;
65187;SDS011;51775;51.148;6.950;2022-10-18T17:21:24;3.42;;;1.90;;
65187;SDS011;51775;51.148;6.950;2022-10-18T17:23:50;2.90;;;1.83;;
65187;SDS011;51775;51.148;6.950;2022-10-18T17:26:17;3.88;;;2.10;;
65187;SDS011;51775;51.148;6.950;2022-10-18T17:28:44;4.78;;;1.90;;
65187;SDS011;51775;51.148;6.950;2022-10-18T17:31:10;2.97;;;1.90;;